createdAt,value
2023-05-05T00:00:01.890Z,4.00
2023-05-05T00:00:10.623Z,4.60
2023-05-05T00:00:28.426Z,4.83
2023-05-05T00:00:36.343Z,4.90
2023-05-05T00:00:43.528Z,4.60
2023-05-05T00:01:03.290Z,4.30
2023-05-05T00:01:10.555Z,4.00
2023-05-05T00:01:20.275Z,3.64
2023-05-05T00:01:36.921Z,3.37
2023-05-05T00:01:44.085Z,3.50
2023-05-05T00:01:51.315Z,3.47
2023-05-05T00:02:08.494Z,3.47
2023-05-05T00:02:16.044Z,3.43
2023-05-05T00:02:23.595Z,2.93
2023-05-05T00:02:41.301Z,3.10
2023-05-05T00:02:50.667Z,3.20
2023-05-05T00:02:58.883Z,3.10
2023-05-05T00:03:13.318Z,3.03
2023-05-05T00:03:21.024Z,3.07
2023-05-05T00:03:29.452Z,2.80
2023-05-05T00:03:44.599Z,2.47
2023-05-05T00:03:52.093Z,2.97
2023-05-05T00:04:02.288Z,3.26
2023-05-05T00:04:18.155Z,3.74
2023-05-05T00:04:25.404Z,3.06
2023-05-05T00:04:34.002Z,2.84
2023-05-05T00:04:51.261Z,2.66
2023-05-05T00:04:59.046Z,3.00
2023-05-05T00:05:07.333Z,3.16
2023-05-05T00:05:21.839Z,2.90
2023-05-05T00:05:31.839Z,2.90
2023-05-05T00:05:40.078Z,2.82
2023-05-05T00:05:57.637Z,2.80
2023-05-05T00:06:05.723Z,2.51
2023-05-05T00:06:13.658Z,2.43
2023-05-05T00:06:28.797Z,2.38
2023-05-05T00:06:36.004Z,2.20
2023-05-05T00:06:43.178Z,1.80
2023-05-05T00:06:58.427Z,2.02
2023-05-05T00:07:08.264Z,2.10
2023-05-05T00:07:15.566Z,3.22
2023-05-05T00:07:29.829Z,3.63
2023-05-05T00:07:37.012Z,3.60
2023-05-05T00:07:44.196Z,2.20
2023-05-05T00:07:59.111Z,2.20
2023-05-05T00:08:14.142Z,2.40
2023-05-05T00:08:21.918Z,3.26
2023-05-05T00:08:36.528Z,3.02
2023-05-05T00:08:44.816Z,3.08
2023-05-05T00:08:54.624Z,2.70
2023-05-05T00:09:01.816Z,2.81
2023-05-05T00:09:16.393Z,3.70
2023-05-05T00:09:23.550Z,3.80
2023-05-05T00:09:37.808Z,2.87
2023-05-05T00:09:44.988Z,2.74
2023-05-05T00:09:59.252Z,2.30
2023-05-05T00:10:07.578Z,2.03
2023-05-05T00:10:22.340Z,2.10
2023-05-05T00:10:32.678Z,2.33
2023-05-05T00:10:42.864Z,2.38
2023-05-05T00:10:51.232Z,3.00
2023-05-05T00:11:05.991Z,2.93
2023-05-05T00:11:13.230Z,2.67
2023-05-05T00:11:30.127Z,1.82
2023-05-05T00:11:37.475Z,1.97
2023-05-05T00:11:44.821Z,1.50
2023-05-05T00:11:52.035Z,1.57
2023-05-05T00:12:07.331Z,1.17
2023-05-05T00:12:14.625Z,1.45
2023-05-05T00:12:34.184Z,1.92
2023-05-05T00:12:41.438Z,1.80
2023-05-05T00:12:49.307Z,1.50
2023-05-05T00:12:56.537Z,1.58
2023-05-05T00:13:11.588Z,1.68
2023-05-05T00:13:19.978Z,1.48
2023-05-05T00:13:34.426Z,1.26
2023-05-05T00:13:41.711Z,1.20
2023-05-05T00:13:51.698Z,1.30
2023-05-05T00:13:58.821Z,1.05
2023-05-05T00:14:14.215Z,1.00
2023-05-05T00:14:21.554Z,0.90
2023-05-05T00:14:35.819Z,1.26
2023-05-05T00:14:43.728Z,1.40
2023-05-05T00:14:58.343Z,1.30
2023-05-05T00:15:08.169Z,1.28
2023-05-05T00:15:15.623Z,1.61
2023-05-05T00:15:22.916Z,1.80
2023-05-05T00:15:41.982Z,1.58
2023-05-05T00:15:52.618Z,1.25
2023-05-05T00:16:00.363Z,1.29
2023-05-05T00:16:08.292Z,1.30
2023-05-05T00:16:15.705Z,1.18
2023-05-05T00:16:23.654Z,1.20
2023-05-05T00:16:51.660Z,1.28
2023-05-05T00:16:58.875Z,1.27
2023-05-05T00:17:06.083Z,1.10
2023-05-05T00:17:13.424Z,0.90
2023-05-05T00:17:22.861Z,0.80
2023-05-05T00:17:30.057Z,1.43
2023-05-05T00:17:56.353Z,2.39
2023-05-05T00:18:03.737Z,1.81
2023-05-05T00:18:11.162Z,1.90
2023-05-05T00:18:18.994Z,1.10
2023-05-05T00:18:26.205Z,1.07
2023-05-05T00:18:34.090Z,1.10
2023-05-05T00:18:59.342Z,2.23
2023-05-05T00:19:06.906Z,2.67
2023-05-05T00:19:16.171Z,3.17
2023-05-05T00:19:25.762Z,2.83
2023-05-05T00:19:33.314Z,2.08
2023-05-05T00:19:41.114Z,1.60
2023-05-05T00:20:07.418Z,0.70
2023-05-05T00:20:15.127Z,0.85
2023-05-05T00:20:23.264Z,0.80
2023-05-05T00:20:30.471Z,1.10
2023-05-05T00:20:37.850Z,0.93
2023-05-05T00:20:47.499Z,0.90
2023-05-05T00:21:09.569Z,1.55
2023-05-05T00:21:16.870Z,1.80
2023-05-05T00:21:28.003Z,1.17
2023-05-05T00:21:35.183Z,1.00
2023-05-05T00:21:42.352Z,1.40
2023-05-05T00:21:51.700Z,1.23
2023-05-05T00:22:10.963Z,1.57
2023-05-05T00:22:18.409Z,1.19
2023-05-05T00:22:33.143Z,1.53
2023-05-05T00:22:40.304Z,1.64
2023-05-05T00:22:47.763Z,1.80
2023-05-05T00:22:54.994Z,1.54
2023-05-05T00:23:19.608Z,1.64
2023-05-05T00:23:26.787Z,1.66
2023-05-05T00:23:34.186Z,1.06
2023-05-05T00:23:41.461Z,1.10
2023-05-05T00:23:48.972Z,1.10
2023-05-05T00:23:56.219Z,1.44
2023-05-05T00:24:29.463Z,1.17
2023-05-05T00:24:36.715Z,1.08
2023-05-05T00:24:44.149Z,0.86
2023-05-05T00:24:51.490Z,0.78
2023-05-05T00:25:01.325Z,0.75
2023-05-05T00:25:09.526Z,1.23
2023-05-05T00:25:31.177Z,1.60
2023-05-05T00:25:39.576Z,1.24
2023-05-05T00:25:47.003Z,1.31
2023-05-05T00:25:54.272Z,1.30
2023-05-05T00:26:01.471Z,1.30
2023-05-05T00:26:18.764Z,0.97
2023-05-05T00:26:37.504Z,1.40
2023-05-05T00:26:44.736Z,1.20
2023-05-05T00:26:51.974Z,1.27
2023-05-05T00:26:59.137Z,1.04
2023-05-05T00:27:06.651Z,0.92
2023-05-05T00:27:23.541Z,0.73
2023-05-05T00:27:40.826Z,1.10
2023-05-05T00:27:48.548Z,1.27
2023-05-05T00:27:56.952Z,0.90
2023-05-05T00:28:07.348Z,0.70
2023-05-05T00:28:14.711Z,0.68
2023-05-05T00:28:29.640Z,1.10
2023-05-05T00:28:39.422Z,1.77
2023-05-05T00:28:55.377Z,1.67
2023-05-05T00:29:03.213Z,1.38
2023-05-05T00:29:10.375Z,1.14
2023-05-05T00:29:17.750Z,0.87
2023-05-05T00:29:32.250Z,1.12
2023-05-05T00:29:41.779Z,0.90
2023-05-05T00:29:59.444Z,1.23
2023-05-05T00:30:08.381Z,1.30
2023-05-05T00:30:15.794Z,1.13
2023-05-05T00:30:23.667Z,1.07
2023-05-05T00:30:39.946Z,1.03
2023-05-05T00:30:47.213Z,0.79
2023-05-05T00:31:01.953Z,0.70
2023-05-05T00:31:09.358Z,0.40
2023-05-05T00:31:19.606Z,0.43
2023-05-05T00:31:27.156Z,0.80
2023-05-05T00:31:41.769Z,1.06
2023-05-05T00:31:51.022Z,1.10
2023-05-05T00:32:05.783Z,0.62
2023-05-05T00:32:12.995Z,0.50
2023-05-05T00:32:20.206Z,0.60
2023-05-05T00:32:27.480Z,0.60
2023-05-05T00:32:42.332Z,0.90
2023-05-05T00:32:52.432Z,0.76
2023-05-05T00:33:07.702Z,0.60
2023-05-05T00:33:14.940Z,0.70
2023-05-05T00:33:22.297Z,1.00
2023-05-05T00:33:29.566Z,1.20
2023-05-05T00:33:45.030Z,1.83
2023-05-05T00:33:59.489Z,1.60
2023-05-05T00:34:16.312Z,1.20
2023-05-05T00:34:23.481Z,1.09
2023-05-05T00:34:30.682Z,1.00
2023-05-05T00:34:37.817Z,0.60
2023-05-05T00:34:46.657Z,0.70
2023-05-05T00:35:01.665Z,1.10
2023-05-05T00:35:17.117Z,1.20
2023-05-05T00:35:27.135Z,1.00
2023-05-05T00:35:34.562Z,0.87
2023-05-05T00:35:41.922Z,0.85
2023-05-05T00:35:50.989Z,0.90
2023-05-05T00:36:08.548Z,0.76
2023-05-05T00:36:22.998Z,0.60
2023-05-05T00:36:30.614Z,0.56
2023-05-05T00:36:37.833Z,0.60
2023-05-05T00:36:45.049Z,0.78
2023-05-05T00:36:52.242Z,1.37
2023-05-05T00:37:17.473Z,1.13
2023-05-05T00:37:24.866Z,0.53
2023-05-05T00:37:32.338Z,0.90
2023-05-05T00:37:39.678Z,1.10
2023-05-05T00:37:47.310Z,1.07
2023-05-05T00:37:55.755Z,1.05
2023-05-05T00:38:18.609Z,1.20
2023-05-05T00:38:25.717Z,1.07
2023-05-05T00:38:34.337Z,1.00
2023-05-05T00:38:44.143Z,0.53
2023-05-05T00:38:51.280Z,0.45
2023-05-05T00:38:58.755Z,0.50
2023-05-05T00:39:20.797Z,1.13
2023-05-05T00:39:28.398Z,1.50
2023-05-05T00:39:35.545Z,1.60
2023-05-05T00:39:44.330Z,1.42
2023-05-05T00:39:52.041Z,1.12
2023-05-05T00:39:59.994Z,0.70
2023-05-05T00:40:28.770Z,0.60
2023-05-05T00:40:36.998Z,0.82
2023-05-05T00:40:45.224Z,0.80
2023-05-05T00:40:52.704Z,0.80
2023-05-05T00:40:59.930Z,0.67
2023-05-05T00:41:07.555Z,1.00
2023-05-05T00:41:29.135Z,0.94
2023-05-05T00:41:44.039Z,0.80
2023-05-05T00:41:51.258Z,1.17
2023-05-05T00:42:01.465Z,1.42
2023-05-05T00:42:08.613Z,1.20
2023-05-05T00:42:18.123Z,1.20
2023-05-05T00:42:42.070Z,1.10
2023-05-05T00:42:50.967Z,0.95
2023-05-05T00:42:59.740Z,0.90
2023-05-05T00:43:07.854Z,0.99
2023-05-05T00:43:15.149Z,1.47
2023-05-05T00:43:22.290Z,1.33
2023-05-05T00:43:46.782Z,0.82
2023-05-05T00:43:53.974Z,0.70
2023-05-05T00:44:01.166Z,0.87
2023-05-05T00:44:09.888Z,1.00
2023-05-05T00:44:17.664Z,1.44
2023-05-05T00:44:39.552Z,1.90
2023-05-05T00:44:47.209Z,1.80
2023-05-05T00:44:54.402Z,1.62
2023-05-05T00:45:02.387Z,1.50
2023-05-05T00:45:10.836Z,1.08
2023-05-05T00:45:22.490Z,0.80
2023-05-05T00:45:42.938Z,0.65
2023-05-05T00:45:57.952Z,1.00
2023-05-05T00:46:19.490Z,1.09
2023-05-05T00:46:29.774Z,1.64
2023-05-05T00:46:40.844Z,1.40
2023-05-05T00:46:48.200Z,1.08
2023-05-05T00:46:55.470Z,1.27
2023-05-05T00:47:02.828Z,1.08
2023-05-05T00:47:20.203Z,1.13
2023-05-05T00:47:35.128Z,1.00
2023-05-05T00:47:45.508Z,1.20
2023-05-05T00:47:54.763Z,1.40
2023-05-05T00:48:02.241Z,1.53
2023-05-05T00:48:09.678Z,1.50
2023-05-05T00:48:32.819Z,0.80
2023-05-05T00:48:40.773Z,0.74
2023-05-05T00:48:48.078Z,0.50
2023-05-05T00:48:55.458Z,0.50
2023-05-05T00:49:02.932Z,0.63
2023-05-05T00:49:10.644Z,0.70
2023-05-05T00:49:36.178Z,1.40
2023-05-05T00:49:43.700Z,1.33
2023-05-05T00:49:51.504Z,1.10
2023-05-05T00:50:01.701Z,1.30
2023-05-05T00:50:10.306Z,1.50
2023-05-05T00:50:23.953Z,1.40
2023-05-05T00:50:44.231Z,0.54
2023-05-05T00:50:51.499Z,0.81
2023-05-05T00:50:59.852Z,1.78
2023-05-05T00:51:09.551Z,3.33
2023-05-05T00:51:19.693Z,4.97
2023-05-05T00:51:28.415Z,4.68
2023-05-05T00:52:10.992Z,0.96
2023-05-05T00:52:21.257Z,0.50
2023-05-05T00:52:28.582Z,0.77
2023-05-05T00:52:36.512Z,0.90
2023-05-05T00:52:43.669Z,1.00
2023-05-05T00:52:53.000Z,0.80
2023-05-05T00:53:12.434Z,1.04
2023-05-05T00:53:21.913Z,1.20
2023-05-05T00:53:29.355Z,1.40
2023-05-05T00:53:39.255Z,1.00
2023-05-05T00:53:47.080Z,0.73
2023-05-05T00:53:54.776Z,0.88
2023-05-05T00:54:18.015Z,1.57
2023-05-05T00:54:25.643Z,1.53
2023-05-05T00:54:33.683Z,1.53
2023-05-05T00:54:43.497Z,1.60
2023-05-05T00:54:52.804Z,1.04
2023-05-05T00:55:00.236Z,0.80
2023-05-05T00:55:18.262Z,0.50
2023-05-05T00:55:26.340Z,0.58
2023-05-05T00:55:35.145Z,0.60
2023-05-05T00:55:52.481Z,0.90
2023-05-05T00:55:59.782Z,0.90
2023-05-05T00:56:10.158Z,0.90
2023-05-05T00:56:19.586Z,0.82
2023-05-05T00:56:27.539Z,0.90
2023-05-05T00:56:42.069Z,0.80
2023-05-05T00:56:59.343Z,0.70
2023-05-05T00:57:08.060Z,0.70
2023-05-05T00:57:18.493Z,0.57
2023-05-05T00:57:28.747Z,0.44
2023-05-05T00:57:36.103Z,0.50
2023-05-05T00:57:46.198Z,0.53
2023-05-05T00:58:02.125Z,2.15
2023-05-05T00:58:10.203Z,2.25
2023-05-05T00:58:25.562Z,1.70
2023-05-05T00:58:32.839Z,1.10
2023-05-05T00:58:41.918Z,1.03
2023-05-05T00:58:52.531Z,0.97
2023-05-05T00:59:10.504Z,0.58
2023-05-05T00:59:19.141Z,0.43
2023-05-05T00:59:29.232Z,0.82
2023-05-05T00:59:38.390Z,0.89
2023-05-05T00:59:49.312Z,0.99
2023-05-05T00:59:57.609Z,0.79
2023-05-05T01:00:14.237Z,0.60
2023-05-05T01:00:25.773Z,0.60
2023-05-05T01:00:33.289Z,0.57
2023-05-05T01:00:40.473Z,0.60
2023-05-05T01:00:55.296Z,0.60
2023-05-05T01:01:04.849Z,0.70
2023-05-05T01:01:22.062Z,0.92
2023-05-05T01:01:30.624Z,0.70
2023-05-05T01:01:38.007Z,0.97
2023-05-05T01:01:46.206Z,1.60
2023-05-05T01:01:56.140Z,1.60
2023-05-05T01:02:13.957Z,0.57
2023-05-05T01:02:22.837Z,0.60
2023-05-05T01:02:31.350Z,0.69
2023-05-05T01:02:39.924Z,0.70
2023-05-05T01:02:47.501Z,0.50
2023-05-05T01:03:02.353Z,0.67
2023-05-05T01:03:17.072Z,0.80
2023-05-05T01:03:27.283Z,0.80
2023-05-05T01:03:36.860Z,0.95
2023-05-05T01:03:44.242Z,1.35
2023-05-05T01:03:51.603Z,1.30
2023-05-05T01:04:06.533Z,0.94
2023-05-05T01:04:21.088Z,1.20
2023-05-05T01:04:28.250Z,1.50
2023-05-05T01:04:42.555Z,1.37
2023-05-05T01:04:49.748Z,1.28
2023-05-05T01:05:00.470Z,0.80
2023-05-05T01:05:09.040Z,0.72
2023-05-05T01:05:27.201Z,0.60
2023-05-05T01:05:53.488Z,0.60
2023-05-05T01:06:16.423Z,0.52
2023-05-05T01:06:41.106Z,0.40
2023-05-05T01:07:02.255Z,0.68
2023-05-05T01:07:22.467Z,1.27
2023-05-05T01:07:40.441Z,0.81
2023-05-05T01:08:03.724Z,1.04
2023-05-05T01:08:30.578Z,0.99
2023-05-05T01:08:51.475Z,0.69
2023-05-05T01:09:07.873Z,1.05
2023-05-05T01:09:26.565Z,0.94
2023-05-05T01:09:46.418Z,0.77
2023-05-05T01:10:17.984Z,0.88
2023-05-05T01:10:34.162Z,1.04
2023-05-05T01:10:46.406Z,1.92
2023-05-05T01:10:58.260Z,1.58
2023-05-05T01:11:12.778Z,0.72
2023-05-05T01:11:27.302Z,0.65
2023-05-05T01:11:45.702Z,0.55
2023-05-05T01:12:01.438Z,0.76
2023-05-05T01:12:18.181Z,0.88
2023-05-05T01:12:37.521Z,0.60
2023-05-05T01:12:58.426Z,1.65
2023-05-05T01:13:23.098Z,1.31
2023-05-05T01:13:40.547Z,0.32
2023-05-05T01:13:58.186Z,0.38
2023-05-05T01:14:13.793Z,0.46
2023-05-05T01:14:28.814Z,0.55
2023-05-05T01:14:40.380Z,0.90
2023-05-05T01:15:01.495Z,1.09
2023-05-05T01:15:21.145Z,0.90
2023-05-05T01:15:33.634Z,0.90
2023-05-05T01:15:46.541Z,0.80
2023-05-05T01:16:02.101Z,2.20
2023-05-05T01:16:15.176Z,2.22
2023-05-05T01:16:27.172Z,2.03
2023-05-05T01:16:42.279Z,0.90
2023-05-05T01:16:57.448Z,0.63
2023-05-05T01:17:14.176Z,0.45
2023-05-05T01:17:27.083Z,0.55
2023-05-05T01:17:41.982Z,0.69
2023-05-05T01:17:59.446Z,0.70
2023-05-05T01:18:15.176Z,0.61
2023-05-05T01:18:32.036Z,1.17
2023-05-05T01:18:46.441Z,1.30
2023-05-05T01:19:01.140Z,1.35
2023-05-05T01:19:28.946Z,1.73
2023-05-05T01:20:06.157Z,1.60
2023-05-05T01:20:21.765Z,0.59
2023-05-05T01:20:36.374Z,0.68
2023-05-05T01:20:49.918Z,0.57
2023-05-05T01:21:09.562Z,0.47
2023-05-05T01:21:23.849Z,0.54
2023-05-05T01:21:36.319Z,0.50
2023-05-05T01:21:48.748Z,0.56
2023-05-05T01:22:00.787Z,0.60
2023-05-05T01:22:11.436Z,0.40
2023-05-05T01:22:23.392Z,0.47
2023-05-05T01:22:40.830Z,0.51
2023-05-05T01:22:57.379Z,0.44
2023-05-05T01:23:07.685Z,0.71
2023-05-05T01:23:25.172Z,1.50
2023-05-05T01:23:53.339Z,1.35
2023-05-05T01:24:29.367Z,1.29
2023-05-05T01:24:57.255Z,0.86
2023-05-05T01:25:22.763Z,0.79
2023-05-05T01:26:23.560Z,0.57
2023-05-05T01:26:51.457Z,0.59
2023-05-05T01:27:27.445Z,0.95
2023-05-05T01:28:00.894Z,1.23
2023-05-05T01:28:27.148Z,0.60
2023-05-05T01:29:01.714Z,0.50
2023-05-05T01:29:30.488Z,0.70
2023-05-05T01:30:06.795Z,0.89
2023-05-05T01:30:43.430Z,0.55
2023-05-05T01:31:06.860Z,0.65
2023-05-05T01:31:33.252Z,0.89
2023-05-05T01:31:52.097Z,0.73
2023-05-05T01:32:03.628Z,0.71
2023-05-05T01:32:13.822Z,0.93
2023-05-05T01:32:25.924Z,1.20
2023-05-05T01:32:38.846Z,0.86
2023-05-05T01:32:51.229Z,0.71
2023-05-05T01:33:04.204Z,1.45
2023-05-05T01:33:18.692Z,1.60
2023-05-05T01:33:29.299Z,1.50
2023-05-05T01:33:44.345Z,0.96
2023-05-05T01:33:57.598Z,1.20
2023-05-05T01:34:09.348Z,1.15
2023-05-05T01:34:21.112Z,1.08
2023-05-05T01:34:35.194Z,1.21
2023-05-05T01:34:49.704Z,1.29
2023-05-05T01:35:02.758Z,1.09
2023-05-05T01:35:18.550Z,0.59
2023-05-05T01:35:30.139Z,0.74
2023-05-05T01:35:42.520Z,0.84
2023-05-05T01:35:55.098Z,0.70
2023-05-05T01:36:07.858Z,0.71
2023-05-05T01:36:24.567Z,0.75
2023-05-05T01:36:37.484Z,0.64
2023-05-05T01:36:58.847Z,0.94
2023-05-05T01:37:11.818Z,1.34
2023-05-05T01:37:24.913Z,1.46
2023-05-05T01:37:41.542Z,1.34
2023-05-05T01:37:58.248Z,1.26
2023-05-05T01:38:12.093Z,1.00
2023-05-05T01:38:23.297Z,1.05
2023-05-05T01:38:37.261Z,1.25
2023-05-05T01:38:49.241Z,1.23
2023-05-05T01:39:02.405Z,1.20
2023-05-05T01:39:16.268Z,0.91
2023-05-05T01:39:28.076Z,0.91
2023-05-05T01:39:39.649Z,0.60
2023-05-05T01:39:53.375Z,0.60
2023-05-05T01:40:06.405Z,0.57
2023-05-05T01:40:18.520Z,0.91
2023-05-05T01:40:32.865Z,1.01
2023-05-05T01:40:46.020Z,0.88
2023-05-05T01:41:02.028Z,0.54
2023-05-05T01:41:15.568Z,0.71
2023-05-05T01:41:29.557Z,1.06
2023-05-05T01:41:43.382Z,1.59
2023-05-05T01:41:53.001Z,1.89
2023-05-05T01:42:05.465Z,1.49
2023-05-05T01:42:15.161Z,0.94
2023-05-05T01:42:24.234Z,1.19
2023-05-05T01:42:35.513Z,1.53
2023-05-05T01:42:44.788Z,1.90
2023-05-05T01:42:57.196Z,1.53
2023-05-05T01:43:08.386Z,1.17
2023-05-05T01:43:20.400Z,1.54
2023-05-05T01:43:31.422Z,1.86
2023-05-05T01:43:44.117Z,1.88
2023-05-05T01:43:53.909Z,1.41
2023-05-05T01:44:06.011Z,1.23
2023-05-05T01:44:16.690Z,1.26
2023-05-05T01:44:26.632Z,1.40
2023-05-05T01:44:36.710Z,1.41
2023-05-05T01:44:45.614Z,1.14
2023-05-05T01:44:56.704Z,0.94
2023-05-05T01:45:08.282Z,1.07
2023-05-05T01:45:21.347Z,1.11
2023-05-05T01:45:35.186Z,1.09
2023-05-05T01:45:45.248Z,1.08
2023-05-05T01:45:54.429Z,1.20
2023-05-05T01:46:03.812Z,1.40
2023-05-05T01:46:12.614Z,1.12
2023-05-05T01:46:23.954Z,1.23
2023-05-05T01:46:35.183Z,1.50
2023-05-05T01:46:53.628Z,1.40
2023-05-05T01:47:01.948Z,1.12
2023-05-05T01:47:14.826Z,0.70
2023-05-05T01:47:24.225Z,0.68
2023-05-05T01:47:32.999Z,1.06
2023-05-05T01:47:42.911Z,1.30
2023-05-05T01:48:02.508Z,1.41
2023-05-05T01:48:12.631Z,1.20
2023-05-05T01:48:20.850Z,1.80
2023-05-05T01:48:30.068Z,1.58
2023-05-05T01:48:40.329Z,1.80
2023-05-05T01:48:52.001Z,1.50
2023-05-05T01:49:10.245Z,1.00
2023-05-05T01:49:17.672Z,0.93
2023-05-05T01:49:26.453Z,1.02
2023-05-05T01:49:35.770Z,1.89
2023-05-05T01:49:44.796Z,2.30
2023-05-05T01:49:52.956Z,2.11
2023-05-05T01:50:14.160Z,0.74
2023-05-05T01:50:25.263Z,1.42
2023-05-05T01:50:33.069Z,1.70
2023-05-05T01:50:43.407Z,2.23
2023-05-05T01:50:52.328Z,1.89
2023-05-05T01:51:02.352Z,1.84
2023-05-05T01:51:23.786Z,1.30
2023-05-05T01:51:32.017Z,1.36
2023-05-05T01:51:40.992Z,1.17
2023-05-05T01:51:50.256Z,1.10
2023-05-05T01:51:59.069Z,0.93
2023-05-05T01:52:09.919Z,1.05
2023-05-05T01:52:27.182Z,1.50
2023-05-05T01:52:36.208Z,2.00
2023-05-05T01:52:45.922Z,1.83
2023-05-05T01:52:54.794Z,1.80
2023-05-05T01:53:03.766Z,1.30
2023-05-05T01:53:12.249Z,0.90
2023-05-05T01:53:31.555Z,0.80
2023-05-05T01:53:39.721Z,0.96
2023-05-05T01:53:47.408Z,1.23
2023-05-05T01:54:02.898Z,1.70
2023-05-05T01:54:11.028Z,2.53
2023-05-05T01:54:20.292Z,2.17
2023-05-05T01:54:38.540Z,0.60
2023-05-05T01:54:46.901Z,0.76
2023-05-05T01:54:55.140Z,1.05
2023-05-05T01:55:04.791Z,1.47
2023-05-05T01:55:12.582Z,1.71
2023-05-05T01:55:27.346Z,1.70
2023-05-05T01:55:46.421Z,1.22
2023-05-05T01:55:57.550Z,1.40
2023-05-05T01:56:08.660Z,1.33
2023-05-05T01:56:17.009Z,1.48
2023-05-05T01:56:27.707Z,1.94
2023-05-05T01:56:37.879Z,1.93
2023-05-05T01:56:49.316Z,1.73
2023-05-05T01:56:59.418Z,1.23
2023-05-05T01:57:08.807Z,1.40
2023-05-05T01:57:18.151Z,1.89
2023-05-05T01:57:34.110Z,2.67
2023-05-05T01:57:43.223Z,2.40
2023-05-05T01:57:51.612Z,1.90
2023-05-05T01:58:00.077Z,1.52
2023-05-05T01:58:10.145Z,1.80
2023-05-05T01:58:18.567Z,3.43
2023-05-05T01:58:39.025Z,3.06
2023-05-05T01:58:47.595Z,1.92
2023-05-05T01:59:01.240Z,1.15
2023-05-05T01:59:10.141Z,1.09
2023-05-05T01:59:18.316Z,1.00
2023-05-05T01:59:26.863Z,1.33
2023-05-05T01:59:43.862Z,1.60
2023-05-05T01:59:52.780Z,1.82
2023-05-05T02:00:03.720Z,1.56
2023-05-05T02:00:27.197Z,1.75
2023-05-05T02:00:35.459Z,2.17
2023-05-05T02:00:44.293Z,1.70
2023-05-05T02:00:52.936Z,1.70
2023-05-05T02:01:01.432Z,1.78
2023-05-05T02:01:10.710Z,2.20
2023-05-05T02:01:29.712Z,1.70
2023-05-05T02:01:41.705Z,1.07
2023-05-05T02:01:52.271Z,1.14
2023-05-05T02:02:04.010Z,1.17
2023-05-05T02:02:13.788Z,1.16
2023-05-05T02:02:22.924Z,0.90
2023-05-05T02:02:31.715Z,1.06
2023-05-05T02:02:50.106Z,2.03
2023-05-05T02:03:00.004Z,2.20
2023-05-05T02:03:09.394Z,1.54
2023-05-05T02:03:18.409Z,1.57
2023-05-05T02:03:27.893Z,1.46
2023-05-05T02:03:41.740Z,1.43
2023-05-05T02:03:51.508Z,1.56
2023-05-05T02:04:00.026Z,1.53
2023-05-05T02:04:10.016Z,1.44
2023-05-05T02:04:22.897Z,1.54
2023-05-05T02:04:32.415Z,1.61
2023-05-05T02:04:44.035Z,1.40
2023-05-05T02:04:53.257Z,1.34
2023-05-05T02:05:01.931Z,1.51
2023-05-05T02:05:13.186Z,1.87
2023-05-05T02:05:22.995Z,2.00
2023-05-05T02:05:41.025Z,1.57
2023-05-05T02:05:49.543Z,1.29
2023-05-05T02:05:58.594Z,1.17
2023-05-05T02:06:08.649Z,1.49
2023-05-05T02:06:17.678Z,1.35
2023-05-05T02:06:27.045Z,1.41
2023-05-05T02:06:50.627Z,1.70
2023-05-05T02:07:01.748Z,1.63
2023-05-05T02:07:11.416Z,1.34
2023-05-05T02:07:20.079Z,1.34
2023-05-05T02:07:28.480Z,2.00
2023-05-05T02:07:36.971Z,2.10
2023-05-05T02:07:59.827Z,1.55
2023-05-05T02:08:10.002Z,1.40
2023-05-05T02:08:21.125Z,1.43
2023-05-05T02:08:31.083Z,1.71
2023-05-05T02:08:43.272Z,1.64
2023-05-05T02:08:51.704Z,2.10
2023-05-05T02:09:01.754Z,2.21
2023-05-05T02:09:13.193Z,2.67
2023-05-05T02:09:21.897Z,2.19
2023-05-05T02:09:32.997Z,2.12
2023-05-05T02:09:45.276Z,1.80
2023-05-05T02:09:53.419Z,1.85
2023-05-05T02:10:13.823Z,1.45
2023-05-05T02:10:21.348Z,1.56
2023-05-05T02:10:31.238Z,1.80
2023-05-05T02:10:41.062Z,1.99
2023-05-05T02:10:49.863Z,2.10
2023-05-05T02:10:58.055Z,2.00
2023-05-05T02:11:17.520Z,1.71
2023-05-05T02:11:30.818Z,1.59
2023-05-05T02:11:39.308Z,2.08
2023-05-05T02:11:46.675Z,2.59
2023-05-05T02:11:55.392Z,2.82
2023-05-05T02:12:07.953Z,2.50
2023-05-05T02:12:24.882Z,2.40
2023-05-05T02:12:33.646Z,2.34
2023-05-05T02:12:42.867Z,1.33
2023-05-05T02:12:52.440Z,1.70
2023-05-05T02:13:01.994Z,1.67
2023-05-05T02:13:15.535Z,1.50
2023-05-05T02:13:25.151Z,1.33
2023-05-05T02:13:43.112Z,2.73
2023-05-05T02:13:56.209Z,3.19
2023-05-05T02:14:05.603Z,2.60
2023-05-05T02:14:14.204Z,2.01
2023-05-05T02:14:25.060Z,2.00
2023-05-05T02:14:33.791Z,2.20
2023-05-05T02:14:43.225Z,2.10
2023-05-05T02:15:01.779Z,3.01
2023-05-05T02:15:11.428Z,3.10
2023-05-05T02:15:23.000Z,2.57
2023-05-05T02:15:34.596Z,2.40
2023-05-05T02:15:43.533Z,2.48
2023-05-05T02:15:51.479Z,2.26
2023-05-05T02:16:02.319Z,1.93
2023-05-05T02:16:13.517Z,1.61
2023-05-05T02:16:31.359Z,2.24
2023-05-05T02:16:41.424Z,2.37
2023-05-05T02:16:52.046Z,2.40
2023-05-05T02:17:04.821Z,1.99
2023-05-05T02:17:13.631Z,2.06
2023-05-05T02:17:23.599Z,1.77
2023-05-05T02:17:33.072Z,1.73
2023-05-05T02:17:42.847Z,1.48
2023-05-05T02:17:53.027Z,1.50
2023-05-05T02:18:10.163Z,1.64
2023-05-05T02:18:20.957Z,2.30
2023-05-05T02:18:28.807Z,3.33
2023-05-05T02:18:37.136Z,3.37
2023-05-05T02:18:47.419Z,2.87
2023-05-05T02:18:57.773Z,2.40
2023-05-05T02:19:15.137Z,2.30
2023-05-05T02:19:28.083Z,2.70
2023-05-05T02:19:42.480Z,2.26
2023-05-05T02:19:56.069Z,3.06
2023-05-05T02:20:06.417Z,3.44
2023-05-05T02:20:15.293Z,3.96
2023-05-05T02:20:24.526Z,3.57
2023-05-05T02:20:32.552Z,3.41
2023-05-05T02:20:48.404Z,2.91
2023-05-05T02:20:56.128Z,2.58
2023-05-05T02:21:18.184Z,2.70
2023-05-05T02:21:25.930Z,2.66
2023-05-05T02:21:34.460Z,2.23
2023-05-05T02:21:43.365Z,2.77
2023-05-05T02:21:55.022Z,3.47
2023-05-05T02:22:02.854Z,3.11
2023-05-05T02:22:24.924Z,2.47
2023-05-05T02:22:35.038Z,2.05
2023-05-05T02:22:44.288Z,1.77
2023-05-05T02:22:51.449Z,1.30
2023-05-05T02:23:01.196Z,1.30
2023-05-05T02:23:09.163Z,2.25
2023-05-05T02:23:25.934Z,4.06
2023-05-05T02:23:41.335Z,2.83
2023-05-05T02:23:52.180Z,2.18
2023-05-05T02:24:03.815Z,1.42
2023-05-05T02:24:11.704Z,1.58
2023-05-05T02:24:18.901Z,1.83
2023-05-05T02:24:26.646Z,2.40
2023-05-05T02:24:48.290Z,2.80
2023-05-05T02:25:00.322Z,2.90
2023-05-05T02:25:09.452Z,2.46
2023-05-05T02:25:20.244Z,2.19
2023-05-05T02:25:38.893Z,2.30
2023-05-05T02:25:53.264Z,2.45
2023-05-05T02:26:05.143Z,2.03
2023-05-05T02:26:16.202Z,1.81
2023-05-05T02:26:26.389Z,2.50
2023-05-05T02:26:36.351Z,2.80
2023-05-05T02:26:46.726Z,2.70
2023-05-05T02:27:01.456Z,2.31
2023-05-05T02:27:11.091Z,1.55
2023-05-05T02:27:23.369Z,1.35
2023-05-05T02:27:34.197Z,2.50
2023-05-05T02:27:43.621Z,2.56
2023-05-05T02:27:56.281Z,2.77
2023-05-05T02:28:05.070Z,2.40
2023-05-05T02:28:19.120Z,2.76
2023-05-05T02:28:33.779Z,2.92
2023-05-05T02:28:49.099Z,2.55
2023-05-05T02:29:04.214Z,2.51
2023-05-05T02:29:18.428Z,3.75
2023-05-05T02:29:35.336Z,3.83
2023-05-05T02:29:49.445Z,2.76
2023-05-05T02:30:02.505Z,2.67
2023-05-05T02:30:15.581Z,2.84
2023-05-05T02:30:24.209Z,2.60
2023-05-05T02:30:34.545Z,2.43
2023-05-05T02:30:43.801Z,2.13
2023-05-05T02:30:57.165Z,1.89
2023-05-05T02:31:07.434Z,2.81
2023-05-05T02:31:17.543Z,3.43
2023-05-05T02:31:28.155Z,3.43
2023-05-05T02:31:40.872Z,2.87
2023-05-05T02:31:57.141Z,3.50
2023-05-05T02:32:14.658Z,3.67
2023-05-05T02:32:27.780Z,3.54
2023-05-05T02:32:39.833Z,2.65
2023-05-05T02:32:56.448Z,2.47
2023-05-05T02:33:09.618Z,1.91
2023-05-05T02:33:20.497Z,2.71
2023-05-05T02:33:36.569Z,2.66
2023-05-05T02:33:48.683Z,2.20
2023-05-05T02:33:58.298Z,3.04
2023-05-05T02:34:08.405Z,4.57
2023-05-05T02:34:22.793Z,3.98
2023-05-05T02:34:33.389Z,3.29
2023-05-05T02:34:43.131Z,2.33
2023-05-05T02:34:57.956Z,2.72
2023-05-05T02:35:14.333Z,4.20
2023-05-05T02:35:30.016Z,3.89
2023-05-05T02:35:40.593Z,3.03
2023-05-05T02:35:54.768Z,2.50
2023-05-05T02:36:13.928Z,2.22
2023-05-05T02:36:37.715Z,2.30
2023-05-05T02:36:46.684Z,2.25
2023-05-05T02:36:58.860Z,2.63
2023-05-05T02:37:13.129Z,2.51
2023-05-05T02:37:26.010Z,1.99
2023-05-05T02:37:37.173Z,2.00
2023-05-05T02:37:48.802Z,2.87
2023-05-05T02:38:02.874Z,3.33
2023-05-05T02:38:20.745Z,3.01
2023-05-05T02:38:34.136Z,2.38
2023-05-05T02:38:45.562Z,2.54
2023-05-05T02:38:58.408Z,2.64
2023-05-05T02:39:14.097Z,2.80
2023-05-05T02:39:28.154Z,2.54
2023-05-05T02:39:41.366Z,2.04
2023-05-05T02:40:01.832Z,1.83
2023-05-05T02:40:16.092Z,2.31
2023-05-05T02:40:26.672Z,2.63
2023-05-05T02:40:37.797Z,2.69
2023-05-05T02:40:48.549Z,3.56
2023-05-05T02:40:59.495Z,3.71
2023-05-05T02:41:09.769Z,3.55
2023-05-05T02:41:20.599Z,2.47
2023-05-05T02:41:33.097Z,2.62
2023-05-05T02:41:48.975Z,2.90
2023-05-05T02:42:05.513Z,2.95
2023-05-05T02:42:18.913Z,2.40
2023-05-05T02:42:29.024Z,2.81
2023-05-05T02:42:41.176Z,4.47
2023-05-05T02:42:54.686Z,4.43